Time;durP1;ratioP1;P1;durP2;ratioP2;P2;SDS_P1;SDS_P2;PMS_P1;PMS_P2;Temp;Humidity;BMP_temperature;BMP_pressure;BME280_temperature;BME280_humidity;BME280_pressure;Samples;Min_cycle;Max_cycle;Signal;HPM_P1;HPM_P2
2021/03/19 00:00:24;;;;;;;1.38;1.00;;;17.30;50.00;;;;;;4985162;28;20026;-64
2021/03/19 00:02:51;;;;;;;1.65;1.05;;;17.30;50.00;;;;;;4999790;28;20508;-64
2021/03/19 00:05:16;;;;;;;2.20;1.00;;;17.40;49.70;;;;;;4984191;28;20121;-61
2021/03/19 00:07:52;;;;;;;1.33;0.73;;;17.50;49.40;;;;;;4984714;28;20117;-64
2021/03/19 00:10:19;;;;;;;1.88;1.00;;;17.70;49.20;;;;;;4999316;28;20116;-63
2021/03/19 00:12:45;;;;;;;1.42;1.05;;;17.80;48.90;;;;;;4983525;28;20031;-64
2021/03/19 00:15:11;;;;;;;0.88;0.82;;;18.00;48.90;;;;;;4985499;28;20038;-59
2021/03/19 00:17:37;;;;;;;2.70;1.15;;;18.10;48.70;;;;;;4984200;28;20034;-61
2021/03/19 00:20:05;;;;;;;1.90;0.70;;;18.10;48.60;;;;;;4984693;28;20729;-64
2021/03/19 00:22:30;;;;;;;3.28;0.90;;;18.20;48.50;;;;;;4984415;28;20125;-64
2021/03/19 00:24:56;;;;;;;1.38;0.93;;;18.30;48.40;;;;;;4984980;28;20065;-64
2021/03/19 00:27:21;;;;;;;1.00;0.90;;;18.30;48.30;;;;;;4984551;28;20490;-63
2021/03/19 00:29:47;;;;;;;1.63;0.90;;;18.40;48.30;;;;;;4984326;28;20038;-62
2021/03/19 00:32:12;;;;;;;0.95;0.70;;;18.40;48.30;;;;;;4985179;28;20030;-63
2021/03/19 00:34:38;;;;;;;0.82;0.80;;;18.40;48.30;;;;;;4984858;28;20037;-63
2021/03/19 00:37:03;;;;;;;0.82;0.70;;;18.40;48.30;;;;;;4984243;28;20050;-64
2021/03/19 00:39:29;;;;;;;1.55;0.85;;;18.40;48.30;;;;;;4984684;28;20113;-63
2021/03/19 00:41:54;;;;;;;1.05;0.88;;;18.40;48.30;;;;;;4984322;28;20038;-60
2021/03/19 00:44:20;;;;;;;2.03;0.73;;;18.30;48.30;;;;;;4984083;28;20081;-63
2021/03/19 00:46:45;;;;;;;1.25;0.60;;;18.30;48.40;;;;;;4984279;28;20034;-60
2021/03/19 00:49:11;;;;;;;2.45;1.10;;;18.30;48.40;;;;;;4984825;28;20057;-64
2021/03/19 00:51:36;;;;;;;0.57;0.55;;;18.30;48.40;;;;;;4984521;28;20034;-60
2021/03/19 00:54:02;;;;;;;0.88;0.60;;;18.30;48.50;;;;;;4984352;28;20030;-59
2021/03/19 00:56:27;;;;;;;1.33;0.60;;;18.30;48.40;;;;;;4984441;28;20038;-62
2021/03/19 00:58:53;;;;;;;0.85;0.70;;;18.30;48.40;;;;;;4984641;28;20042;-59
2021/03/19 01:01:18;;;;;;;1.58;0.82;;;18.30;48.40;;;;;;4984424;28;20030;-62
2021/03/19 01:03:44;;;;;;;2.05;0.77;;;18.20;49.00;;;;;;4984410;28;20038;-63
2021/03/19 01:06:10;;;;;;;0.95;0.65;;;18.20;48.30;;;;;;4983446;28;21356;-64
2021/03/19 01:08:35;;;;;;;0.98;0.80;;;18.20;48.30;;;;;;4987099;28;20034;-59
2021/03/19 01:11:01;;;;;;;1.20;0.82;;;18.20;48.20;;;;;;4987450;28;20110;-60
2021/03/19 01:13:26;;;;;;;1.02;0.93;;;18.20;48.20;;;;;;4983752;28;20026;-64
2021/03/19 01:15:52;;;;;;;1.27;1.17;;;18.10;48.20;;;;;;4983666;28;20035;-62
2021/03/19 01:18:19;;;;;;;1.05;0.95;;;18.10;48.20;;;;;;4983371;28;20046;-62
2021/03/19 01:20:45;;;;;;;1.38;1.00;;;18.10;48.10;;;;;;4983465;28;20549;-65
2021/03/19 01:23:11;;;;;;;1.20;1.10;;;18.10;48.10;;;;;;4984347;28;20057;-61
2021/03/19 01:25:37;;;;;;;0.75;0.75;;;18.10;48.00;;;;;;4998918;28;20034;-58
2021/03/19 01:28:02;;;;;;;1.80;0.98;;;18.10;47.80;;;;;;4983126;28;20444;-64
2021/03/19 01:30:29;;;;;;;1.17;1.08;;;18.10;47.80;;;;;;4983752;28;20117;-57
2021/03/19 01:32:54;;;;;;;1.00;0.90;;;18.10;47.80;;;;;;4981704;28;20537;-60
2021/03/19 01:35:22;;;;;;;1.25;1.00;;;18.10;47.70;;;;;;4983634;28;20117;-60
2021/03/19 01:37:47;;;;;;;1.02;0.93;;;18.10;47.70;;;;;;4998403;28;20504;-63
2021/03/19 01:40:13;;;;;;;1.23;1.13;;;18.10;47.60;;;;;;4983713;28;20038;-61
2021/03/19 01:42:44;;;;;;;1.35;1.02;;;18.10;47.60;;;;;;4983278;28;20041;-64
2021/03/19 01:45:46;;;;;;;0.90;0.90;;;18.10;47.50;;;;;;4997502;28;20041;-63
2021/03/19 01:48:49;;;;;;;1.25;0.82;;;18.10;47.50;;;;;;4983427;28;20033;-64
2021/03/19 01:51:52;;;;;;;1.73;1.25;;;18.10;47.50;;;;;;4983694;28;20373;-64
2021/03/19 01:54:55;;;;;;;2.42;1.10;;;18.10;47.50;;;;;;4976908;28;20038;-61
2021/03/19 01:57:58;;;;;;;1.50;1.00;;;18.00;47.40;;;;;;4976827;28;20053;-63
2021/03/19 02:01:02;;;;;;;1.52;0.90;;;18.00;47.40;;;;;;4983113;28;21355;-61
2021/03/19 02:04:05;;;;;;;1.10;0.98;;;18.00;47.40;;;;;;4982709;28;20042;-64
2021/03/19 02:07:08;;;;;;;1.17;1.08;;;18.00;47.40;;;;;;4977024;28;20034;-58
2021/03/19 02:10:10;;;;;;;1.48;1.25;;;18.00;47.40;;;;;;4976967;28;20078;-61
2021/03/19 02:13:13;;;;;;;1.23;1.10;;;17.90;47.50;;;;;;4978954;28;20568;-60
2021/03/19 02:16:16;;;;;;;1.52;1.42;;;18.00;47.50;;;;;;4979158;28;20505;-64
2021/03/19 02:19:19;;;;;;;1.65;1.40;;;18.00;47.40;;;;;;4978391;28;20497;-59
2021/03/19 02:22:22;;;;;;;4.10;1.33;;;18.00;47.30;;;;;;4980352;28;20050;-62
2021/03/19 02:25:24;;;;;;;0.85;0.85;;;17.90;47.20;;;;;;4982776;28;20408;-61
2021/03/19 02:28:28;;;;;;;4.57;1.40;;;18.00;47.20;;;;;;4975351;28;20044;-61
2021/03/19 02:31:12;;;;;;;1.75;1.58;;;18.00;47.20;;;;;;4983452;28;20173;-60
2021/03/19 02:33:51;;;;;;;1.08;1.00;;;17.90;47.20;;;;;;4983199;28;20522;-62
2021/03/19 02:36:18;;;;;;;2.35;1.20;;;17.90;47.20;;;;;;4982193;28;21931;-61
2021/03/19 02:38:44;;;;;;;3.45;1.20;;;18.00;47.20;;;;;;4984002;28;20034;-63
2021/03/19 02:41:09;;;;;;;1.90;1.48;;;17.90;47.20;;;;;;4985676;28;20041;-62
2021/03/19 02:43:35;;;;;;;1.95;1.10;;;17.90;47.20;;;;;;5000680;28;20039;-64
2021/03/19 02:46:00;;;;;;;2.38;1.20;;;17.90;47.20;;;;;;4985738;28;20049;-62
2021/03/19 02:48:26;;;;;;;2.67;1.08;;;17.90;47.20;;;;;;4983064;28;20572;-59
2021/03/19 02:50:52;;;;;;;1.25;1.15;;;17.90;47.20;;;;;;4983070;28;20034;-61
2021/03/19 02:53:19;;;;;;;1.50;0.90;;;17.90;47.30;;;;;;4983706;28;20162;-59
2021/03/19 02:55:45;;;;;;;2.55;1.23;;;17.90;47.30;;;;;;4982231;28;20022;-58
2021/03/19 02:58:10;;;;;;;1.85;1.00;;;17.90;47.30;;;;;;4982204;28;20057;-63
2021/03/19 03:00:36;;;;;;;3.10;1.40;;;17.90;47.40;;;;;;4982609;28;20162;-61
2021/03/19 03:03:02;;;;;;;2.25;1.23;;;17.90;47.40;;;;;;4982562;28;20794;-63
2021/03/19 03:05:27;;;;;;;1.35;1.20;;;17.80;47.30;;;;;;4983128;28;20031;-63
2021/03/19 03:07:53;;;;;;;1.33;1.20;;;17.80;47.40;;;;;;4984976;28;20022;-63
2021/03/19 03:10:18;;;;;;;0.93;0.93;;;17.90;47.50;;;;;;4985948;28;20037;-64
2021/03/19 03:12:44;;;;;;;1.55;1.35;;;17.80;47.50;;;;;;4986771;28;20114;-63
2021/03/19 03:15:10;;;;;;;1.42;1.33;;;17.90;47.50;;;;;;4986370;28;20795;-61
2021/03/19 03:17:36;;;;;;;1.42;1.33;;;17.80;47.50;;;;;;4986256;28;20031;-60
2021/03/19 03:20:04;;;;;;;1.98;1.20;;;17.80;47.50;;;;;;4986408;28;20088;-63
2021/03/19 03:22:32;;;;;;;2.22;1.67;;;17.80;47.50;;;;;;4986960;28;20030;-58
2021/03/19 03:24:57;;;;;;;1.20;1.10;;;17.80;47.60;;;;;;4986995;28;20116;-61
2021/03/19 03:27:23;;;;;;;1.85;1.67;;;17.80;47.70;;;;;;4986872;28;20383;-63
2021/03/19 03:29:48;;;;;;;1.48;1.30;;;17.70;47.70;;;;;;4987570;28;20046;-59
2021/03/19 03:32:14;;;;;;;1.95;1.25;;;17.70;47.90;;;;;;4990218;28;20034;-59
2021/03/19 03:34:39;;;;;;;1.40;1.30;;;17.60;48.00;;;;;;4991018;28;20031;-62
2021/03/19 03:37:05;;;;;;;1.65;1.52;;;17.60;48.10;;;;;;4987774;28;20617;-62
2021/03/19 03:39:31;;;;;;;1.63;1.40;;;17.60;48.10;;;;;;4985832;28;20092;-63
2021/03/19 03:41:58;;;;;;;1.42;1.30;;;17.50;48.20;;;;;;4984369;28;20125;-60
2021/03/19 03:44:23;;;;;;;1.58;1.40;;;17.60;48.30;;;;;;4978138;28;20034;-64
2021/03/19 03:46:49;;;;;;;1.98;1.30;;;17.60;48.20;;;;;;4985735;28;20034;-62
2021/03/19 03:49:15;;;;;;;1.50;1.20;;;17.70;48.10;;;;;;4986400;28;20378;-62
2021/03/19 03:51:41;;;;;;;1.88;1.10;;;17.80;47.90;;;;;;5000735;28;20026;-64
2021/03/19 03:54:06;;;;;;;1.35;1.00;;;17.90;47.80;;;;;;4985240;28;20095;-64
2021/03/19 03:56:32;;;;;;;1.85;1.23;;;17.90;47.50;;;;;;4985566;28;20097;-64
2021/03/19 03:58:58;;;;;;;1.23;1.10;;;18.00;47.30;;;;;;5000247;28;20278;-63
2021/03/19 04:01:24;;;;;;;1.50;1.10;;;18.10;47.10;;;;;;4985151;28;20046;-63
2021/03/19 04:03:50;;;;;;;2.33;1.40;;;18.10;46.90;;;;;;4985316;28;20712;-60
2021/03/19 04:06:16;;;;;;;1.80;1.23;;;18.20;46.80;;;;;;4985726;28;20038;-60
2021/03/19 04:08:41;;;;;;;1.33;1.00;;;18.20;46.70;;;;;;4984951;28;20112;-64
2021/03/19 04:11:10;;;;;;;1.40;1.30;;;18.20;46.60;;;;;;4983508;28;20525;-61
2021/03/19 04:13:35;;;;;;;2.03;1.30;;;18.30;46.60;;;;;;4984422;28;20035;-62
2021/03/19 04:16:01;;;;;;;2.03;1.13;;;18.30;46.50;;;;;;4985019;28;20114;-61
2021/03/19 04:18:27;;;;;;;1.85;1.40;;;18.30;46.40;;;;;;4984136;28;20035;-62
2021/03/19 04:20:54;;;;;;;1.70;1.30;;;18.30;46.40;;;;;;4984633;28;20066;-60
2021/03/19 04:23:20;;;;;;;1.98;1.20;;;18.20;46.30;;;;;;4985678;28;20039;-64
2021/03/19 04:25:45;;;;;;;3.00;1.60;;;18.20;46.50;;;;;;4984752;28;20088;-62
2021/03/19 04:28:15;;;;;;;1.40;1.13;;;18.20;46.50;;;;;;4984842;28;20129;-64
2021/03/19 04:30:42;;;;;;;1.40;1.13;;;18.20;46.50;;;;;;4967455;28;20096;-64
2021/03/19 04:33:09;;;;;;;1.52;1.42;;;18.10;46.60;;;;;;4984738;28;20452;-60
2021/03/19 04:35:35;;;;;;;1.70;1.40;;;18.10;46.60;;;;;;4983528;28;20038;-62
2021/03/19 04:38:03;;;;;;;1.58;1.27;;;18.10;46.50;;;;;;4984158;28;20030;-64
2021/03/19 04:40:29;;;;;;;1.40;1.30;;;18.10;46.50;;;;;;4984709;28;20816;-61
2021/03/19 04:42:54;;;;;;;2.83;1.10;;;18.10;46.50;;;;;;4984118;28;20046;-58
2021/03/19 04:45:20;;;;;;;1.55;1.05;;;18.10;46.50;;;;;;5000058;28;20034;-65
2021/03/19 04:47:46;;;;;;;1.67;1.55;;;18.00;46.50;;;;;;4967421;28;20037;-61
2021/03/19 04:50:12;;;;;;;3.05;1.50;;;18.10;46.50;;;;;;4964614;28;20042;-60
2021/03/19 04:52:38;;;;;;;1.27;1.10;;;18.00;46.50;;;;;;4976370;28;20567;-64
2021/03/19 04:55:05;;;;;;;1.40;1.30;;;18.00;46.50;;;;;;4969199;28;20042;-62
2021/03/19 04:57:30;;;;;;;2.47;1.30;;;18.00;46.50;;;;;;4970904;28;20039;-62
2021/03/19 04:59:56;;;;;;;2.00;1.30;;;18.00;46.50;;;;;;4971927;28;20565;-63
2021/03/19 05:02:36;;;;;;;2.17;1.50;;;17.90;46.60;;;;;;4972310;28;20057;-65
2021/03/19 05:05:01;;;;;;;1.20;1.10;;;18.00;46.60;;;;;;4973490;28;20034;-64
2021/03/19 05:07:27;;;;;;;1.73;1.50;;;17.90;46.70;;;;;;4966695;28;20045;-64
2021/03/19 05:09:52;;;;;;;1.42;1.10;;;17.90;46.80;;;;;;4972720;28;20445;-60
2021/03/19 05:12:18;;;;;;;2.13;1.27;;;17.90;46.80;;;;;;4971112;28;20041;-62
2021/03/19 05:14:43;;;;;;;2.30;1.20;;;17.90;46.90;;;;;;4970986;28;20611;-64
2021/03/19 05:17:09;;;;;;;1.70;1.27;;;17.80;46.90;;;;;;4965915;28;20049;-62
2021/03/19 05:19:34;;;;;;;1.70;1.30;;;17.80;46.90;;;;;;4968496;28;20069;-64
2021/03/19 05:22:00;;;;;;;1.77;1.15;;;17.90;47.00;;;;;;4971135;28;20122;-62
2021/03/19 05:24:26;;;;;;;0.93;0.88;;;17.80;47.00;;;;;;4973867;28;20035;-63
2021/03/19 05:26:51;;;;;;;1.30;1.20;;;17.80;47.00;;;;;;4974198;28;20038;-64
2021/03/19 05:29:17;;;;;;;1.48;1.30;;;17.80;47.00;;;;;;4971129;28;20508;-62
2021/03/19 05:31:42;;;;;;;1.67;1.20;;;17.80;47.10;;;;;;4966791;28;20039;-62
2021/03/19 05:34:09;;;;;;;1.20;1.05;;;17.80;47.10;;;;;;4972278;28;20041;-65
2021/03/19 05:36:35;;;;;;;1.00;0.90;;;17.80;47.20;;;;;;4971721;28;20046;-64
2021/03/19 05:39:00;;;;;;;1.20;1.02;;;17.80;47.30;;;;;;4972347;28;20567;-65
2021/03/19 05:41:29;;;;;;;1.67;1.20;;;17.80;47.40;;;;;;4983711;28;20026;-64
2021/03/19 05:44:10;;;;;;;2.25;1.25;;;17.80;47.30;;;;;;4997563;28;20042;-65
2021/03/19 05:46:37;;;;;;;1.20;1.10;;;17.80;47.30;;;;;;4984154;28;20034;-64
2021/03/19 05:49:07;;;;;;;3.38;1.10;;;17.80;47.50;;;;;;4982884;28;20038;-64
2021/03/19 05:51:33;;;;;;;2.88;1.20;;;17.70;47.50;;;;;;4999436;28;20046;-65
2021/03/19 05:54:10;;;;;;;5.38;1.30;;;17.70;47.70;;;;;;4985591;28;20043;-64
2021/03/19 05:56:35;;;;;;;2.92;1.25;;;17.70;47.70;;;;;;4986359;28;20042;-64
2021/03/19 05:59:01;;;;;;;3.58;1.40;;;17.70;47.70;;;;;;4986328;28;20098;-62
2021/03/19 06:01:27;;;;;;;4.97;1.13;;;17.70;47.80;;;;;;5004131;28;20042;-63
2021/03/19 06:03:55;;;;;;;5.20;1.38;;;17.70;47.80;;;;;;4984163;28;20082;-60
2021/03/19 06:06:21;;;;;;;2.97;1.25;;;17.70;47.80;;;;;;4967250;28;20034;-63
2021/03/19 06:08:48;;;;;;;2.67;1.50;;;17.70;47.80;;;;;;4983743;28;20773;-59
2021/03/19 06:11:24;;;;;;;3.10;1.25;;;17.70;47.80;;;;;;4998884;28;20375;-64
2021/03/19 06:14:16;;;;;;;1.77;1.42;;;17.70;47.70;;;;;;4981587;28;20450;-63
2021/03/19 06:16:54;;;;;;;2.38;1.33;;;17.70;47.70;;;;;;4975237;28;20038;-63
2021/03/19 06:19:27;;;;;;;3.50;1.10;;;17.70;47.60;;;;;;4965844;28;20034;-63
2021/03/19 06:22:14;;;;;;;5.10;1.67;;;17.70;47.50;;;;;;4998561;28;20042;-64
2021/03/19 06:24:40;;;;;;;4.15;3.10;;;17.70;47.40;;;;;;4975602;28;20092;-63
2021/03/19 06:27:11;;;;;;;4.75;3.08;;;17.70;47.50;;;;;;4997619;28;20038;-64
2021/03/19 06:29:45;;;;;;;4.85;2.65;;;17.70;47.60;;;;;;4982358;28;20035;-65
2021/03/19 06:32:20;;;;;;;14.82;6.63;;;17.70;47.60;;;;;;4965897;28;20104;-64
2021/03/19 06:34:53;;;;;;;15.40;7.80;;;17.70;48.40;;;;;;4982938;28;20579;-66
2021/03/19 06:37:49;;;;;;;15.00;6.88;;;17.70;48.70;;;;;;4981877;28;20043;-65
2021/03/19 06:40:23;;;;;;;16.33;6.75;;;17.70;49.00;;;;;;4964442;28;20073;-62
2021/03/19 06:42:49;;;;;;;11.18;6.22;;;17.80;49.10;;;;;;4984172;28;20429;-65
2021/03/19 06:45:19;;;;;;;10.88;6.20;;;17.70;49.10;;;;;;4986797;28;20049;-60
2021/03/19 06:47:47;;;;;;;16.23;6.70;;;17.70;49.00;;;;;;4986226;28;20497;-65
2021/03/19 06:50:35;;;;;;;14.15;5.88;;;17.70;49.00;;;;;;5001258;28;20109;-63
2021/03/19 06:53:18;;;;;;;13.68;5.65;;;17.70;48.80;;;;;;4984150;28;20027;-64
2021/03/19 06:55:47;;;;;;;8.85;4.97;;;17.70;48.60;;;;;;4986662;28;20100;-65
2021/03/19 06:58:12;;;;;;;16.55;5.03;;;17.80;48.30;;;;;;4984163;28;20038;-65
2021/03/19 07:00:42;;;;;;;14.90;5.68;;;17.90;48.00;;;;;;4986499;28;20041;-63
2021/03/19 07:03:44;;;;;;;11.60;4.57;;;18.00;47.80;;;;;;4984753;28;20030;-61
2021/03/19 07:06:16;;;;;;;8.52;4.03;;;18.10;47.70;;;;;;5000654;28;20062;-63
2021/03/19 07:09:12;;;;;;;9.57;4.40;;;18.10;47.60;;;;;;4986727;28;20035;-64
2021/03/19 07:11:54;;;;;;;;;;;18.10;47.70;;;;;;4981378;28;20046;-63
2021/03/19 07:14:39;;;;;;;8.18;3.65;;;18.20;47.80;;;;;;4987380;28;19912;-63
2021/03/19 07:17:24;;;;;;;9.75;4.72;;;18.20;47.80;;;;;;4988037;28;20081;-61
2021/03/19 07:20:09;;;;;;;13.60;3.67;;;18.30;47.90;;;;;;4996280;28;20034;-64
2021/03/19 07:22:42;;;;;;;7.53;3.20;;;18.30;47.90;;;;;;4986750;28;20043;-62
2021/03/19 07:25:12;;;;;;;11.25;3.33;;;18.30;47.90;;;;;;4986889;28;20030;-64
2021/03/19 07:27:43;;;;;;;10.00;3.45;;;18.30;47.90;;;;;;4987546;28;20497;-62
2021/03/19 07:30:15;;;;;;;12.55;3.15;;;18.40;48.00;;;;;;4988426;28;20057;-64
2021/03/19 07:33:10;;;;;;;9.93;3.08;;;18.40;47.90;;;;;;4987195;28;20033;-63
2021/03/19 07:35:41;;;;;;;9.07;3.08;;;18.40;48.00;;;;;;4967915;28;20035;-63
2021/03/19 07:38:42;;;;;;;10.45;3.47;;;18.40;48.60;;;;;;5002965;28;20034;-62
2021/03/19 07:41:16;;;;;;;11.82;3.22;;;18.40;48.00;;;;;;4987995;28;20397;-61
2021/03/19 07:44:07;;;;;;;13.02;2.95;;;18.40;47.90;;;;;;5003045;28;20033;-61
2021/03/19 07:47:03;;;;;;;14.32;3.47;;;18.40;47.90;;;;;;4980680;28;20034;-61
2021/03/19 07:49:40;;;;;;;12.32;3.30;;;18.30;47.90;;;;;;4983151;28;20026;-61
2021/03/19 07:52:19;;;;;;;20.13;4.15;;;18.30;48.50;;;;;;5003222;28;20565;-62
2021/03/19 07:54:51;;;;;;;11.60;3.00;;;18.30;47.90;;;;;;4971136;28;20031;-63
2021/03/19 07:57:34;;;;;;;11.77;3.53;;;18.20;47.90;;;;;;4987233;28;20044;-61
2021/03/19 08:00:05;;;;;;;12.15;3.47;;;18.20;47.90;;;;;;5004345;28;20057;-63
2021/03/19 08:02:43;;;;;;;17.60;4.10;;;18.20;47.90;;;;;;4991073;28;20061;-63
2021/03/19 08:05:40;;;;;;;17.10;4.15;;;18.20;48.00;;;;;;4975490;28;20073;-61
2021/03/19 08:08:18;;;;;;;20.58;5.57;;;18.20;48.60;;;;;;4987407;28;20023;-61
2021/03/19 08:11:04;;;;;;;19.80;5.72;;;18.10;48.00;;;;;;4988302;28;20018;-62
2021/03/19 08:13:54;;;;;;;17.30;4.78;;;18.10;47.90;;;;;;4971971;28;20491;-62
2021/03/19 08:16:25;;;;;;;18.67;5.90;;;18.20;47.90;;;;;;4980573;28;20117;-61
2021/03/19 08:19:04;;;;;;;18.15;4.82;;;18.20;47.70;;;;;;4987436;28;20032;-60
2021/03/19 08:21:53;;;;;;;32.78;6.35;;;18.20;47.60;;;;;;4979037;28;20113;-60
2021/03/19 08:24:25;;;;;;;49.67;10.27;;;18.20;47.60;;;;;;4999369;28;20026;-62
2021/03/19 08:27:11;;;;;;;63.95;12.40;;;18.20;47.60;;;;;;4968360;28;20030;-59
2021/03/19 08:29:45;;;;;;;95.72;15.15;;;18.20;47.60;;;;;;4985679;28;20706;-61
2021/03/19 08:32:35;;;;;;;99.55;17.20;;;18.20;47.60;;;;;;4985963;28;20045;-61
2021/03/19 08:35:18;;;;;;;105.97;19.33;;;18.20;47.60;;;;;;4985012;28;20493;-61
2021/03/19 08:38:10;;;;;;;126.32;20.95;;;18.20;47.70;;;;;;4978885;28;20481;-62
2021/03/19 08:40:53;;;;;;;136.48;22.67;;;18.10;47.60;;;;;;4980291;28;20038;-60
2021/03/19 08:43:33;;;;;;;146.50;23.63;;;18.10;47.60;;;;;;4984946;28;20050;-62
2021/03/19 08:46:06;;;;;;;144.50;24.17;;;18.10;47.80;;;;;;4985019;28;20025;-62
2021/03/19 08:48:32;;;;;;;144.52;26.05;;;18.10;47.70;;;;;;4961225;28;20030;-62
2021/03/19 08:51:12;;;;;;;150.18;25.10;;;18.10;47.70;;;;;;4985370;28;20094;-61
2021/03/19 08:54:06;;;;;;;165.07;25.13;;;18.10;47.70;;;;;;4986688;28;20019;-61
2021/03/19 08:56:32;;;;;;;139.85;23.67;;;18.10;47.60;;;;;;4985730;28;20015;-57
2021/03/19 08:58:57;;;;;;;167.05;24.83;;;18.00;47.60;;;;;;4986535;28;20026;-59
2021/03/19 09:01:45;;;;;;;167.35;25.80;;;18.00;47.60;;;;;;4968617;28;20033;-61
2021/03/19 09:04:10;;;;;;;149.27;23.45;;;18.00;48.00;;;;;;4984809;28;20030;-58
2021/03/19 09:06:36;;;;;;;169.20;27.15;;;18.00;48.60;;;;;;4985609;28;20033;-60
2021/03/19 09:09:35;;;;;;;162.57;27.98;;;18.00;49.00;;;;;;4985486;28;20033;-62
2021/03/19 09:12:03;;;;;;;167.15;24.90;;;18.00;49.10;;;;;;4978628;28;20031;-58
2021/03/19 09:14:38;;;;;;;147.68;24.70;;;18.00;49.40;;;;;;4985212;28;20045;-58
2021/03/19 09:17:05;;;;;;;153.02;25.75;;;18.00;49.70;;;;;;4985755;28;20038;-63
2021/03/19 09:19:44;;;;;;;135.52;22.75;;;18.00;49.90;;;;;;4984077;28;20034;-62
2021/03/19 09:22:23;;;;;;;135.18;21.00;;;18.00;50.00;;;;;;4968779;28;20034;-60
2021/03/19 09:25:07;;;;;;;109.15;19.95;;;18.00;50.20;;;;;;4980061;28;20030;-63
2021/03/19 09:27:33;;;;;;;112.00;20.02;;;18.00;50.50;;;;;;4984636;28;20030;-63
2021/03/19 09:30:07;;;;;;;97.00;18.52;;;18.00;50.60;;;;;;4984103;28;20030;-64
2021/03/19 09:32:43;;;;;;;94.18;17.15;;;18.00;50.80;;;;;;4984003;28;20596;-61
2021/03/19 09:35:15;;;;;;;93.30;16.38;;;18.00;50.80;;;;;;4984490;28;20116;-62
2021/03/19 09:37:40;;;;;;;88.60;16.45;;;18.00;50.90;;;;;;4984187;28;20062;-63
2021/03/19 09:40:09;;;;;;;80.45;15.55;;;17.90;50.90;;;;;;4986134;28;20042;-63
2021/03/19 09:42:43;;;;;;;79.85;17.08;;;18.00;50.90;;;;;;4985799;28;20568;-61
2021/03/19 09:45:11;;;;;;;89.68;16.30;;;18.00;50.90;;;;;;4985527;28;20038;-63
2021/03/19 09:47:48;;;;;;;75.85;14.40;;;18.00;50.90;;;;;;4985777;28;20101;-62
2021/03/19 09:50:26;;;;;;;70.95;14.45;;;18.00;50.80;;;;;;4985086;28;20019;-64
2021/03/19 09:53:11;;;;;;;70.53;15.23;;;18.00;50.60;;;;;;4985383;28;20029;-64
2021/03/19 09:55:45;;;;;;;83.80;15.90;;;18.00;50.50;;;;;;4977458;28;20666;-62
2021/03/19 09:58:19;;;;;;;84.32;15.10;;;17.90;50.30;;;;;;4985236;28;20030;-64
2021/03/19 10:00:52;;;;;;;92.43;18.02;;;17.90;50.30;;;;;;4986665;28;20054;-61
2021/03/19 10:03:17;;;;;;;108.35;19.40;;;17.90;50.10;;;;;;4983048;28;20026;-63
2021/03/19 10:05:46;;;;;;;108.20;18.63;;;17.90;50.10;;;;;;4984278;28;20041;-63
2021/03/19 10:08:32;;;;;;;106.10;17.95;;;17.90;50.10;;;;;;4984438;28;20026;-60
2021/03/19 10:11:12;;;;;;;115.45;18.58;;;17.90;50.20;;;;;;4982857;28;20031;-63
2021/03/19 10:13:37;;;;;;;103.47;18.45;;;17.80;50.30;;;;;;4983527;28;20552;-60
2021/03/19 10:16:03;;;;;;;112.95;18.67;;;17.90;50.30;;;;;;4984323;28;20106;-60
2021/03/19 10:18:33;;;;;;;102.78;18.98;;;17.80;50.30;;;;;;4983553;28;20062;-61
2021/03/19 10:21:18;;;;;;;109.30;17.95;;;17.90;50.40;;;;;;4984550;28;20541;-64
2021/03/19 10:23:46;;;;;;;96.63;17.25;;;17.80;50.30;;;;;;4979795;28;20088;-63
2021/03/19 10:26:31;;;;;;;97.43;17.70;;;17.90;50.90;;;;;;4983311;28;20047;-63
2021/03/19 10:29:16;;;;;;;108.05;16.42;;;17.90;50.20;;;;;;4984425;28;20053;-61
2021/03/19 10:31:56;;;;;;;88.20;17.55;;;17.80;50.10;;;;;;4978189;28;20038;-63
2021/03/19 10:34:58;;;;;;;103.63;17.52;;;17.80;50.10;;;;;;4969107;28;20658;-63
2021/03/19 10:37:38;;;;;;;91.78;17.48;;;17.80;50.10;;;;;;4959136;28;20045;-63
2021/03/19 10:40:34;;;;;;;100.65;17.45;;;17.80;50.00;;;;;;4967465;28;20118;-61
2021/03/19 10:43:24;;;;;;;;;;;17.80;50.00;;;;;;4983444;28;20023;-61
2021/03/19 10:46:00;;;;;;;103.63;18.60;;;17.80;50.00;;;;;;4984436;28;20287;-61
2021/03/19 10:48:50;;;;;;;120.05;19.23;;;17.70;49.90;;;;;;4983173;28;20015;-61
2021/03/19 10:51:24;;;;;;;103.65;18.85;;;17.80;50.10;;;;;;4976161;28;20073;-63
2021/03/19 10:53:53;;;;;;;121.43;20.27;;;17.80;50.00;;;;;;4983058;28;20039;-61
2021/03/19 10:56:19;;;;;;;119.13;21.23;;;17.80;50.10;;;;;;4983782;28;20076;-61
2021/03/19 10:58:49;;;;;;;120.25;19.20;;;17.70;50.10;;;;;;4961986;28;20042;-62
2021/03/19 11:01:30;;;;;;;116.97;19.30;;;17.80;50.10;;;;;;4983911;28;20113;-60
2021/03/19 11:03:55;;;;;;;95.22;18.77;;;17.90;50.00;;;;;;4962755;28;20035;-64
2021/03/19 11:06:37;;;;;;;103.07;17.88;;;18.10;49.80;;;;;;4967704;28;20053;-57
2021/03/19 11:09:14;;;;;;;94.00;18.15;;;18.20;49.60;;;;;;4960789;28;20061;-63
2021/03/19 11:11:40;;;;;;;95.88;17.67;;;18.20;49.40;;;;;;4951478;28;20520;-60
2021/03/19 11:14:07;;;;;;;86.00;17.00;;;18.20;49.30;;;;;;4959325;28;20039;-63
2021/03/19 11:16:35;;;;;;;85.25;16.58;;;18.20;49.20;;;;;;4938000;28;20106;-60
2021/03/19 11:19:18;;;;;;;86.15;14.77;;;18.20;49.30;;;;;;4985410;28;20067;-59
2021/03/19 11:21:44;;;;;;;80.03;14.18;;;18.20;49.30;;;;;;4985122;28;20045;-58
2021/03/19 11:24:27;;;;;;;72.85;13.88;;;18.20;49.30;;;;;;4984813;28;20023;-59
2021/03/19 11:26:56;;;;;;;70.20;14.43;;;18.20;49.30;;;;;;4985471;28;20520;-56
2021/03/19 11:29:23;;;;;;;68.88;14.07;;;18.20;49.30;;;;;;4987029;28;20038;-63
2021/03/19 11:31:59;;;;;;;72.60;13.05;;;18.20;49.30;;;;;;4992337;28;20041;-63
2021/03/19 11:34:38;;;;;;;57.03;12.77;;;18.20;49.30;;;;;;4981254;28;20488;-56
2021/03/19 11:37:14;;;;;;;73.88;12.88;;;18.20;49.30;;;;;;4987612;28;20037;-60
2021/03/19 11:39:56;;;;;;;59.08;13.00;;;18.20;49.40;;;;;;4985854;28;20038;-59
2021/03/19 11:42:45;;;;;;;51.53;12.85;;;18.20;49.40;;;;;;4979605;28;20042;-59
2021/03/19 11:45:16;;;;;;;50.25;11.43;;;18.20;49.50;;;;;;4986302;28;20057;-60
2021/03/19 11:47:45;;;;;;;55.33;12.90;;;18.20;49.40;;;;;;4984892;28;20042;-60
2021/03/19 11:50:23;;;;;;;46.83;11.68;;;18.20;49.60;;;;;;4986372;28;20202;-60
2021/03/19 11:52:51;;;;;;;47.80;10.80;;;18.20;49.60;;;;;;4987087;28;20472;-61
2021/03/19 11:55:19;;;;;;;41.90;10.88;;;18.20;49.60;;;;;;4985957;28;20641;-57
2021/03/19 11:57:44;;;;;;;44.55;12.52;;;18.20;49.70;;;;;;4984133;28;20553;-59
2021/03/19 12:00:10;;;;;;;56.90;13.10;;;18.20;49.80;;;;;;4985145;28;20108;-64
2021/03/19 12:02:40;;;;;;;44.67;11.10;;;18.20;49.80;;;;;;4983976;28;20042;-61
2021/03/19 12:05:09;;;;;;;37.25;10.05;;;18.20;49.70;;;;;;4983565;28;20130;-60
2021/03/19 12:07:34;;;;;;;39.78;9.65;;;18.20;49.70;;;;;;4985358;28;20038;-63
2021/03/19 12:10:00;;;;;;;39.63;10.73;;;18.10;49.60;;;;;;4983980;28;20040;-63
2021/03/19 12:12:26;;;;;;;42.88;10.48;;;18.10;49.70;;;;;;4978539;28;20039;-60
2021/03/19 12:14:52;;;;;;;38.88;10.30;;;18.10;49.70;;;;;;4987074;28;20046;-61
2021/03/19 12:17:17;;;;;;;35.70;9.80;;;18.00;49.60;;;;;;4985863;28;20515;-63
2021/03/19 12:19:43;;;;;;;37.53;9.35;;;18.00;49.60;;;;;;5000550;28;20046;-60
2021/03/19 12:22:09;;;;;;;40.67;10.07;;;18.00;49.60;;;;;;5000207;28;20045;-62
2021/03/19 12:24:34;;;;;;;34.15;10.05;;;18.00;49.40;;;;;;4985206;28;20073;-60
2021/03/19 12:27:00;;;;;;;50.55;10.80;;;18.00;49.30;;;;;;4984091;28;20034;-60
2021/03/19 12:29:25;;;;;;;44.35;9.88;;;18.00;49.20;;;;;;4985190;28;20033;-64
2021/03/19 12:31:52;;;;;;;44.90;12.55;;;18.00;49.10;;;;;;4985429;28;20042;-60
2021/03/19 12:34:17;;;;;;;57.38;14.95;;;18.00;49.00;;;;;;4985067;28;20052;-63
2021/03/19 12:36:43;;;;;;;84.97;15.45;;;18.00;49.00;;;;;;4985177;28;20030;-60
2021/03/19 12:39:08;;;;;;;92.97;16.90;;;18.00;48.80;;;;;;4983059;28;20166;-63
2021/03/19 12:41:34;;;;;;;111.57;21.63;;;18.00;48.80;;;;;;4983844;28;20505;-60
2021/03/19 12:43:59;;;;;;;114.38;20.73;;;18.00;48.60;;;;;;4985128;28;20110;-56
2021/03/19 12:46:25;;;;;;;120.68;23.40;;;17.90;48.60;;;;;;4984774;28;20042;-63
2021/03/19 12:48:50;;;;;;;121.65;21.85;;;17.90;48.60;;;;;;4984036;28;20699;-60
2021/03/19 12:51:16;;;;;;;109.30;20.80;;;17.90;48.60;;;;;;4985040;28;20585;-62
2021/03/19 12:53:41;;;;;;;109.05;20.95;;;17.80;48.50;;;;;;4985429;28;20228;-60
2021/03/19 12:56:07;;;;;;;110.53;20.88;;;17.90;48.70;;;;;;4985170;28;20042;-63
2021/03/19 12:58:33;;;;;;;113.78;20.92;;;17.80;48.60;;;;;;4984920;28;20042;-62
2021/03/19 13:00:58;;;;;;;91.57;17.95;;;17.80;48.60;;;;;;4984640;28;20038;-64
2021/03/19 13:03:25;;;;;;;106.68;21.85;;;17.80;48.60;;;;;;4983715;28;20031;-61
2021/03/19 13:05:51;;;;;;;96.88;19.70;;;17.80;48.50;;;;;;4983839;28;20029;-64